Hoopers Valley, New York
Current Conditions -  °F | °C
As of 9:53 AM on Wednesday 22 Oct 2014 (Local Time) from KBGM Reporting Station
Overcast Overcast  
Wind Chill:   Ceiling: 900
Heat Index:   Visibility: 10mi
Dew Point:   Wind: 10mph
Humidity: 89%   Direction: 30°NNE
Pressure: 30.07"   Gusts: 21mph
Location:  42.0389°N, 76.3138°W
Report Text: KBGM 221353Z 03009G18KT 10SM OVC009 09/07 A3007 RMK AO2 CIG 007V013 SLP186 T00890072
Loading
Personal Weather Stations






























Interactive Weather Map
Tropical Storm Tracking
New forecast layout! Learn more

10-Day Weather Forecast

Advertisements
Track Severe Weather on mobile